createdAt,value
2022-10-02T00:01:57.643Z,99344.47
2022-10-02T00:04:33.823Z,99356.91
2022-10-02T00:07:07.757Z,99358.56
2022-10-02T00:09:43.625Z,99337.97
2022-10-02T00:12:16.149Z,99353.19
2022-10-02T00:14:46.785Z,99350.50
2022-10-02T00:17:19.879Z,99351.53
2022-10-02T00:19:48.222Z,99363.28
2022-10-02T00:22:30.659Z,99358.94
2022-10-02T00:25:07.274Z,99356.91
2022-10-02T00:27:45.613Z,99364.13
2022-10-02T00:30:18.082Z,99367.66
2022-10-02T00:32:59.728Z,99367.66
2022-10-02T00:35:43.172Z,99365.97
2022-10-02T00:38:23.585Z,99375.06
2022-10-02T00:41:23.327Z,99375.91
2022-10-02T00:44:09.980Z,99370.03
2022-10-02T00:46:46.654Z,99366.34
2022-10-02T00:49:35.901Z,99373.41
2022-10-02T00:52:24.324Z,99365.88
2022-10-02T00:55:19.264Z,99373.41
2022-10-02T00:58:04.521Z,99374.38
2022-10-02T01:00:33.051Z,99380.78
2022-10-02T01:03:11.667Z,99383.31
2022-10-02T01:05:40.166Z,99380.44
2022-10-02T01:08:09.162Z,99385.81
2022-10-02T01:10:39.392Z,99389.53
2022-10-02T01:13:09.158Z,99398.22
2022-10-02T01:15:40.032Z,99382.44
2022-10-02T01:18:08.801Z,99387.47
2022-10-02T01:20:39.771Z,99393.88
2022-10-02T01:23:19.618Z,99402.59
2022-10-02T01:25:49.287Z,99407.31
2022-10-02T01:28:17.658Z,99410.00
2022-10-02T01:30:49.734Z,99413.53
2022-10-02T01:33:18.425Z,99407.31
2022-10-02T01:35:47.233Z,99413.53
2022-10-02T01:38:19.437Z,99408.16
2022-10-02T01:40:48.937Z,99418.06
2022-10-02T01:43:20.171Z,99420.75
2022-10-02T01:45:58.160Z,99422.56
2022-10-02T01:48:41.027Z,99427.13
2022-10-02T01:51:25.592Z,99418.06
2022-10-02T01:54:06.741Z,99424.16
2022-10-02T01:56:44.572Z,99423.78
2022-10-02T01:59:24.655Z,99433.50
2022-10-02T02:02:06.377Z,99439.53
2022-10-02T02:04:43.768Z,99432.88
2022-10-02T02:07:18.713Z,99439.53
2022-10-02T02:09:55.235Z,99443.25
2022-10-02T02:12:32.533Z,99444.06
2022-10-02T02:15:05.308Z,99436.19
2022-10-02T02:17:39.965Z,99443.25
2022-10-02T02:20:11.225Z,99448.63
2022-10-02T02:22:45.575Z,99444.91
2022-10-02T02:25:17.857Z,99448.63
2022-10-02T02:27:51.583Z,99444.91
2022-10-02T02:30:21.834Z,99447.59
2022-10-02T02:32:54.346Z,99444.91
2022-10-02T02:35:27.381Z,99447.59
2022-10-02T02:38:02.016Z,99445.28
2022-10-02T02:40:32.773Z,99455.00
2022-10-02T02:43:07.137Z,99451.50
2022-10-02T02:45:40.056Z,99448.31
2022-10-02T02:48:13.769Z,99459.75
2022-10-02T02:50:46.020Z,99436.31
2022-10-02T02:53:17.675Z,99456.03
2022-10-02T02:55:51.117Z,99457.06
2022-10-02T02:58:26.789Z,99436.31
2022-10-02T03:00:55.118Z,99470.50
2022-10-02T03:03:23.486Z,99461.41
2022-10-02T03:05:57.910Z,99450.66
2022-10-02T03:08:29.139Z,99463.06
2022-10-02T03:11:08.020Z,99459.75
2022-10-02T03:13:52.234Z,99463.06
2022-10-02T03:16:35.569Z,99458.72
2022-10-02T03:19:23.251Z,99461.41
2022-10-02T03:21:59.300Z,99466.97
2022-10-02T03:24:34.024Z,99466.78
2022-10-02T03:27:07.597Z,99465.13
2022-10-02T03:29:42.148Z,99480.03
2022-10-02T03:32:13.104Z,99472.81
2022-10-02T03:34:41.834Z,99462.06
2022-10-02T03:37:10.229Z,99467.63
2022-10-02T03:39:41.735Z,99473.81
2022-10-02T03:42:12.475Z,99470.50
2022-10-02T03:44:42.158Z,99467.81
2022-10-02T03:47:10.359Z,99470.50
2022-10-02T03:49:38.421Z,99468.78
2022-10-02T03:52:06.528Z,99476.84
2022-10-02T03:54:36.900Z,99461.75
2022-10-02T03:57:07.676Z,99470.50
2022-10-02T03:59:45.908Z,99477.88
2022-10-02T04:02:22.576Z,99469.66
2022-10-02T04:04:56.790Z,99476.69
2022-10-02T04:07:30.561Z,99481.25
2022-10-02T04:10:09.107Z,99485.75
2022-10-02T04:12:41.861Z,99476.22
2022-10-02T04:15:21.107Z,99481.25
2022-10-02T04:17:56.892Z,99479.53
2022-10-02T04:20:31.891Z,99492.00
2022-10-02T04:23:07.849Z,99492.00
2022-10-02T04:25:41.381Z,99484.91
2022-10-02T04:28:15.250Z,99486.63
2022-10-02T04:30:44.877Z,99492.81
2022-10-02T04:33:14.887Z,99493.66
2022-10-02T04:35:52.308Z,99493.66
2022-10-02T04:38:37.056Z,99497.00
2022-10-02T04:41:17.929Z,99499.88
2022-10-02T04:44:01.999Z,99502.75
2022-10-02T04:46:50.201Z,99501.72
2022-10-02T04:49:42.320Z,99491.00
2022-10-02T04:52:31.058Z,99509.78
2022-10-02T04:55:27.330Z,99507.25
2022-10-02T04:58:22.290Z,99510.13
2022-10-02T05:00:58.606Z,99508.47
2022-10-02T05:03:45.805Z,99502.41
2022-10-02T05:06:38.883Z,99513.84
2022-10-02T05:09:17.608Z,99517.53
2022-10-02T05:12:25.659Z,99514.84
2022-10-02T05:15:28.778Z,99512.16
2022-10-02T05:18:17.158Z,99514.66
2022-10-02T05:21:01.538Z,99527.09
2022-10-02T05:23:51.396Z,99531.63
2022-10-02T05:26:37.398Z,99526.25
2022-10-02T05:29:25.321Z,99525.41
2022-10-02T05:32:09.928Z,99531.63
2022-10-02T05:34:51.261Z,99533.28
2022-10-02T05:37:39.863Z,99527.91
2022-10-02T05:40:18.478Z,99534.97
2022-10-02T05:42:55.095Z,99539.00
2022-10-02T05:45:28.673Z,99544.03
2022-10-02T05:48:06.310Z,99537.66
2022-10-02T05:50:37.657Z,99543.03
2022-10-02T05:53:16.093Z,99548.25
2022-10-02T05:55:50.281Z,99545.72
2022-10-02T05:58:24.708Z,99547.38
2022-10-02T06:01:00.148Z,99554.44
2022-10-02T06:03:38.338Z,99553.63
2022-10-02T06:06:16.397Z,99555.13
2022-10-02T06:08:52.798Z,99560.81
2022-10-02T06:11:28.228Z,99554.78
2022-10-02T06:14:00.103Z,99568.03
2022-10-02T06:16:35.825Z,99568.03
2022-10-02T06:19:09.124Z,99564.72
2022-10-02T06:21:43.755Z,99572.25
2022-10-02T06:24:20.100Z,99566.25
2022-10-02T06:26:52.820Z,99575.09
2022-10-02T06:29:27.436Z,99546.16
2022-10-02T06:32:07.450Z,99589.19
2022-10-02T06:34:35.725Z,99584.66
2022-10-02T06:37:26.883Z,99591.69
2022-10-02T06:40:13.568Z,99596.25
2022-10-02T06:42:53.640Z,99595.41
2022-10-02T06:45:35.384Z,99590.03
2022-10-02T06:48:15.657Z,99591.69
2022-10-02T06:50:47.269Z,99595.41
2022-10-02T06:53:50.104Z,99596.25
2022-10-02T06:56:39.343Z,99590.03
2022-10-02T06:59:20.595Z,99588.72
2022-10-02T07:01:57.502Z,99599.13
2022-10-02T07:04:42.853Z,99599.13
2022-10-02T07:07:25.303Z,99609.88
2022-10-02T07:10:14.268Z,99604.50
2022-10-02T07:13:12.105Z,99593.75
2022-10-02T07:15:56.939Z,99609.88
2022-10-02T07:18:37.686Z,99599.13
2022-10-02T07:21:15.538Z,99602.63
2022-10-02T07:23:52.127Z,99603.66
2022-10-02T07:26:47.872Z,99615.25
2022-10-02T07:29:39.369Z,99613.19
2022-10-02T07:32:38.165Z,99614.53
2022-10-02T07:35:38.981Z,99619.56
2022-10-02T07:38:43.248Z,99620.38
2022-10-02T07:41:46.415Z,99624.09
2022-10-02T07:44:31.477Z,99632.31
2022-10-02T07:47:08.079Z,99625.28
2022-10-02T07:49:48.002Z,99632.50
2022-10-02T07:52:25.901Z,99623.59
2022-10-02T07:55:09.384Z,99628.97
2022-10-02T07:57:43.588Z,99631.19
2022-10-02T08:00:16.981Z,99637.22
2022-10-02T08:02:51.405Z,99635.38
2022-10-02T08:05:21.745Z,99636.38
2022-10-02T08:07:53.481Z,99641.75
2022-10-02T08:10:26.949Z,99647.13
2022-10-02T08:13:02.741Z,99641.75
2022-10-02T08:15:36.663Z,99633.03
2022-10-02T08:18:33.132Z,99633.03
2022-10-02T08:21:04.065Z,99653.34
2022-10-02T08:23:37.721Z,99651.50
2022-10-02T08:26:10.815Z,99648.13
2022-10-02T08:28:45.055Z,99650.81
2022-10-02T08:31:16.103Z,99654.53
2022-10-02T08:33:44.363Z,99656.00
2022-10-02T08:36:37.019Z,99656.88
2022-10-02T08:39:16.096Z,99656.00
2022-10-02T08:42:34.045Z,99659.56
2022-10-02T08:45:26.708Z,99657.88
2022-10-02T08:48:28.904Z,99660.56
2022-10-02T08:51:23.256Z,99636.78
2022-10-02T08:54:31.884Z,99676.88
2022-10-02T08:57:47.675Z,99688.44
2022-10-02T09:00:24.009Z,99694.00
2022-10-02T09:03:24.822Z,99689.47
2022-10-02T09:06:37.643Z,99687.81
2022-10-02T09:09:51.593Z,99697.69
2022-10-02T09:12:49.528Z,99711.97
2022-10-02T09:15:19.570Z,99680.13
2022-10-02T09:17:50.518Z,99711.97
2022-10-02T09:20:45.411Z,99722.72
2022-10-02T09:23:57.835Z,99724.41
2022-10-02T09:26:37.644Z,99728.94
2022-10-02T09:29:45.208Z,99729.78
2022-10-02T09:32:58.021Z,99736.00
2022-10-02T09:36:01.977Z,99740.53
2022-10-02T09:39:03.091Z,99751.28
2022-10-02T09:42:08.802Z,99745.91
2022-10-02T09:45:17.560Z,99752.28
2022-10-02T09:48:18.938Z,99754.97
2022-10-02T09:51:26.327Z,99760.34
2022-10-02T09:54:21.709Z,99768.41
2022-10-02T09:57:31.907Z,99767.41
2022-10-02T10:00:19.217Z,99748.59
2022-10-02T10:03:19.089Z,99772.78
2022-10-02T10:06:18.470Z,99721.31
2022-10-02T10:09:18.126Z,99777.13
2022-10-02T10:12:30.709Z,99795.94
2022-10-02T10:15:43.179Z,99793.25
2022-10-02T10:18:56.456Z,99788.91
2022-10-02T10:21:59.889Z,99794.63
2022-10-02T10:25:10.732Z,99789.91
2022-10-02T10:28:12.574Z,99793.25
2022-10-02T10:31:12.523Z,99805.03
2022-10-02T10:34:23.361Z,99806.69
2022-10-02T10:37:15.407Z,99817.44
2022-10-02T10:40:14.336Z,99822.81
2022-10-02T10:43:07.976Z,99828.19
2022-10-02T10:45:54.186Z,99821.16
2022-10-02T10:48:35.380Z,99821.16
2022-10-02T10:51:23.246Z,99835.59
2022-10-02T10:54:11.283Z,99842.66
2022-10-02T10:56:44.584Z,99836.44
2022-10-02T10:59:42.514Z,99860.44
2022-10-02T11:02:45.905Z,99844.66
2022-10-02T11:05:37.040Z,99852.06
2022-10-02T11:08:26.291Z,99860.44
2022-10-02T11:11:07.904Z,99866.84
2022-10-02T11:13:54.558Z,99874.91
2022-10-02T11:17:00.203Z,99874.03
2022-10-02T11:19:41.208Z,99880.28
2022-10-02T11:22:29.690Z,99882.97
2022-10-02T11:25:34.745Z,99893.72
2022-10-02T11:28:25.471Z,99894.56
2022-10-02T11:31:07.379Z,99884.13
2022-10-02T11:33:58.030Z,99910.84
2022-10-02T11:36:42.817Z,99905.47
2022-10-02T11:39:38.492Z,99912.88
2022-10-02T11:42:22.584Z,99913.53
2022-10-02T11:45:20.581Z,99927.78
2022-10-02T11:48:09.271Z,99924.47
2022-10-02T11:51:10.095Z,99916.56
2022-10-02T11:54:06.319Z,99929.66
2022-10-02T11:57:07.757Z,99934.38
2022-10-02T12:00:04.643Z,99942.25
2022-10-02T12:02:39.117Z,99946.78
2022-10-02T12:05:30.740Z,99943.94
2022-10-02T12:08:04.938Z,99953.84
2022-10-02T12:10:41.587Z,99965.44
2022-10-02T12:13:32.235Z,99964.59
2022-10-02T12:16:11.649Z,99969.97
2022-10-02T12:18:51.794Z,99974.50
2022-10-02T12:21:57.710Z,99978.03
2022-10-02T12:24:54.765Z,99978.03
2022-10-02T12:27:37.937Z,99977.19
2022-10-02T12:30:12.483Z,99975.34
2022-10-02T12:32:54.810Z,99988.09
2022-10-02T12:36:00.535Z,99983.59
2022-10-02T12:38:49.921Z,99991.81
2022-10-02T12:41:34.655Z,99985.75
2022-10-02T12:44:34.612Z,99998.84
2022-10-02T12:47:36.042Z,100002.56
2022-10-02T12:50:21.126Z,99998.19
2022-10-02T12:53:20.781Z,100000.84
2022-10-02T12:56:26.686Z,100001.19
2022-10-02T12:59:04.980Z,100011.13
2022-10-02T13:02:07.319Z,100016.16
2022-10-02T13:05:04.785Z,100021.53
2022-10-02T13:07:59.488Z,100027.72
2022-10-02T13:10:31.928Z,100026.75
2022-10-02T13:13:20.177Z,100025.72
2022-10-02T13:15:56.888Z,100034.81
2022-10-02T13:18:44.130Z,100030.25
2022-10-02T13:21:19.553Z,100036.81
2022-10-02T13:23:58.072Z,100040.19
2022-10-02T13:26:37.128Z,100044.53
2022-10-02T13:29:42.925Z,100047.22
2022-10-02T13:32:43.060Z,100046.22
2022-10-02T13:35:27.344Z,100054.44
2022-10-02T13:38:08.760Z,100050.94
2022-10-02T13:40:47.886Z,100057.97
2022-10-02T13:43:42.386Z,100060.66
2022-10-02T13:46:22.750Z,100063.34
2022-10-02T13:49:02.836Z,100063.34
2022-10-02T13:51:36.171Z,100054.28
2022-10-02T13:54:24.922Z,100063.34
2022-10-02T13:57:01.699Z,100057.47
2022-10-02T13:59:49.186Z,100063.34
2022-10-02T14:02:34.710Z,100072.44
2022-10-02T14:05:12.327Z,100066.03
2022-10-02T14:07:56.157Z,100071.41
2022-10-02T14:10:40.843Z,100070.72
2022-10-02T14:13:25.209Z,100078.63
2022-10-02T14:16:08.510Z,100082.16
2022-10-02T14:19:04.300Z,100087.53
2022-10-02T14:21:37.769Z,100092.91
2022-10-02T14:24:52.266Z,100090.22
2022-10-02T14:27:45.779Z,100099.31
2022-10-02T14:30:18.508Z,100104.69
2022-10-02T14:32:59.216Z,100100.97
2022-10-02T14:35:52.003Z,100116.25
2022-10-02T14:38:37.731Z,100098.78
2022-10-02T14:41:26.983Z,100106.69
2022-10-02T14:44:32.251Z,100114.41
2022-10-02T14:47:15.417Z,100119.97
2022-10-02T14:50:31.106Z,100124.31
2022-10-02T14:53:27.851Z,100132.38
2022-10-02T14:56:14.957Z,100134.25
2022-10-02T14:58:59.128Z,100135.22
2022-10-02T15:01:27.655Z,100140.59
2022-10-02T15:04:12.630Z,100147.69
2022-10-02T15:07:00.142Z,100145.16
2022-10-02T15:09:38.656Z,100145.97
2022-10-02T15:12:15.274Z,100153.06
2022-10-02T15:14:56.269Z,100154.91
2022-10-02T15:17:50.972Z,100162.09
2022-10-02T15:20:26.516Z,100163.81
2022-10-02T15:22:59.948Z,100167.47
2022-10-02T15:25:51.400Z,100132.16
2022-10-02T15:28:36.749Z,100169.19
2022-10-02T15:31:17.243Z,100178.22
2022-10-02T15:33:50.621Z,100194.34
2022-10-02T15:36:50.297Z,100180.25
2022-10-02T15:39:40.184Z,100184.63
2022-10-02T15:42:10.902Z,100173.81
2022-10-02T15:45:08.778Z,100186.47
2022-10-02T15:47:54.135Z,100195.22
2022-10-02T15:50:31.785Z,100199.72
2022-10-02T15:53:18.076Z,100201.44
2022-10-02T15:55:51.215Z,100207.78
2022-10-02T15:58:35.019Z,100217.88
2022-10-02T16:01:19.813Z,100192.31
2022-10-02T16:03:52.008Z,100220.25
2022-10-02T16:06:34.344Z,100221.22
2022-10-02T16:09:38.984Z,100232.84
2022-10-02T16:12:33.632Z,100229.28
2022-10-02T16:15:15.031Z,100241.06
2022-10-02T16:18:21.642Z,100235.69
2022-10-02T16:20:58.419Z,100257.19
2022-10-02T16:24:03.501Z,100253.81
2022-10-02T16:26:41.647Z,100260.88
2022-10-02T16:29:25.416Z,100261.72
2022-10-02T16:32:13.439Z,100271.63
2022-10-02T16:34:57.212Z,100272.47
2022-10-02T16:37:29.391Z,100264.56
2022-10-02T16:40:01.057Z,100278.69
2022-10-02T16:42:41.324Z,100284.06
2022-10-02T16:45:30.500Z,100280.34
2022-10-02T16:48:09.135Z,100285.75
2022-10-02T16:50:54.464Z,100277.84
2022-10-02T16:53:27.336Z,100292.81
2022-10-02T16:56:07.461Z,100302.56
2022-10-02T16:58:45.437Z,100301.69
2022-10-02T17:01:25.739Z,100308.94
2022-10-02T17:04:20.065Z,100319.69
2022-10-02T17:06:54.069Z,100310.94
2022-10-02T17:09:31.873Z,100318.00
2022-10-02T17:12:08.252Z,100317.16
2022-10-02T17:14:46.764Z,100329.59
2022-10-02T17:17:23.026Z,100332.44
2022-10-02T17:19:55.768Z,100327.91
2022-10-02T17:22:34.401Z,100331.44
2022-10-02T17:25:12.377Z,100336.66
2022-10-02T17:27:53.161Z,100346.56
2022-10-02T17:30:27.129Z,100341.19
2022-10-02T17:33:06.953Z,100350.25
2022-10-02T17:35:48.724Z,100349.41
2022-10-02T17:38:56.383Z,100359.31
2022-10-02T17:41:42.596Z,100355.25
2022-10-02T17:44:23.614Z,100352.25
2022-10-02T17:47:14.757Z,100359.00
2022-10-02T17:49:55.976Z,100361.53
2022-10-02T17:52:50.103Z,100365.06
2022-10-02T17:55:52.757Z,100364.38
2022-10-02T17:58:31.688Z,100376.50
2022-10-02T18:01:14.362Z,100372.81
2022-10-02T18:03:53.367Z,100379.88
2022-10-02T18:06:32.623Z,100390.63
2022-10-02T18:09:22.853Z,100408.75
2022-10-02T18:12:13.247Z,100410.75
2022-10-02T18:15:18.896Z,100416.44
2022-10-02T18:18:01.623Z,100418.44
2022-10-02T18:20:35.429Z,100425.81
2022-10-02T18:23:28.133Z,100423.28
2022-10-02T18:26:07.869Z,100431.50
2022-10-02T18:29:01.571Z,100442.25
2022-10-02T18:31:55.716Z,100435.19
2022-10-02T18:34:55.506Z,100444.94
2022-10-02T18:37:48.399Z,100444.25
2022-10-02T18:40:23.415Z,100447.94
2022-10-02T18:43:27.511Z,100449.63
2022-10-02T18:46:04.899Z,100447.94
2022-10-02T18:48:49.086Z,100451.63
2022-10-02T18:51:32.910Z,100455.31
2022-10-02T18:54:17.977Z,100458.69
2022-10-02T18:57:10.865Z,100460.38
2022-10-02T18:59:53.086Z,100469.44
2022-10-02T19:02:36.955Z,100432.25
2022-10-02T19:05:22.854Z,100476.50
2022-10-02T19:07:57.336Z,100471.13
2022-10-02T19:10:30.309Z,100480.19
2022-10-02T19:13:02.178Z,100482.03
2022-10-02T19:15:34.818Z,100480.19
2022-10-02T19:18:04.923Z,100476.81
2022-10-02T19:20:42.167Z,100485.56
2022-10-02T19:23:17.562Z,100485.56
2022-10-02T19:25:47.861Z,100493.47
2022-10-02T19:28:20.035Z,100499.69
2022-10-02T19:30:53.493Z,100498.00
2022-10-02T19:33:32.269Z,100487.31
2022-10-02T19:36:05.399Z,100507.06
2022-10-02T19:38:37.570Z,100507.06
2022-10-02T19:41:10.731Z,100496.91
2022-10-02T19:43:49.396Z,100512.44
2022-10-02T19:46:20.152Z,100510.75
2022-10-02T19:48:57.269Z,100510.75
2022-10-02T19:51:26.450Z,100512.44
2022-10-02T19:54:01.488Z,100419.66
2022-10-02T19:56:35.794Z,100514.44
2022-10-02T19:59:11.785Z,100521.50
2022-10-02T20:01:47.991Z,100520.63
2022-10-02T20:04:20.333Z,100507.97
2022-10-02T20:06:53.020Z,100518.09
2022-10-02T20:09:28.402Z,100521.50
2022-10-02T20:12:01.155Z,100531.25
2022-10-02T20:14:33.753Z,100540.31
2022-10-02T20:17:12.835Z,100540.31
2022-10-02T20:19:45.916Z,100541.63
2022-10-02T20:22:25.429Z,100543.00
2022-10-02T20:24:59.879Z,100546.69
2022-10-02T20:27:38.524Z,100557.44
2022-10-02T20:30:12.938Z,100553.03
2022-10-02T20:32:48.349Z,100550.34
2022-10-02T20:35:21.782Z,100554.03
2022-10-02T20:37:52.491Z,100554.03
2022-10-02T20:40:23.096Z,100520.22
2022-10-02T20:42:59.122Z,100554.03
2022-10-02T20:45:36.880Z,100542.22
2022-10-02T20:49:07.957Z,100552.38
2022-10-02T20:52:09.444Z,100568.50
2022-10-02T20:54:50.026Z,100563.13
2022-10-02T20:58:00.766Z,100563.13
2022-10-02T21:00:34.405Z,100569.47
2022-10-02T21:03:23.912Z,100572.16
2022-10-02T21:06:22.178Z,100578.69
2022-10-02T21:09:15.825Z,100578.53
2022-10-02T21:12:05.546Z,100583.22
2022-10-02T21:14:54.655Z,100590.28
2022-10-02T21:18:02.101Z,100592.97
2022-10-02T21:20:52.443Z,100601.03
2022-10-02T21:23:59.586Z,100599.31
2022-10-02T21:27:03.514Z,100602.00
2022-10-02T21:30:01.753Z,100601.19
2022-10-02T21:32:42.142Z,100610.06
2022-10-02T21:35:34.596Z,100616.31
2022-10-02T21:38:41.544Z,100620.81
2022-10-02T21:41:35.260Z,100620.97
2022-10-02T21:44:43.060Z,100616.47
2022-10-02T21:47:39.976Z,100622.84
2022-10-02T21:50:50.771Z,100624.81
2022-10-02T21:53:59.789Z,100635.41
2022-10-02T21:56:57.638Z,100630.19
2022-10-02T22:00:03.019Z,100632.88
2022-10-02T22:03:05.108Z,100633.88
2022-10-02T22:06:00.178Z,100638.56
2022-10-02T22:08:40.248Z,100651.69
2022-10-02T22:11:14.914Z,100656.22
2022-10-02T22:13:44.956Z,100657.91
2022-10-02T22:16:27.917Z,100665.84
2022-10-02T22:19:00.888Z,100658.78
2022-10-02T22:21:57.470Z,100665.84
2022-10-02T22:24:48.361Z,100665.84
2022-10-02T22:27:41.932Z,100672.88
2022-10-02T22:30:24.349Z,100667.50
2022-10-02T22:33:13.333Z,100672.03
2022-10-02T22:36:17.939Z,100680.28
2022-10-02T22:38:50.992Z,100671.19
2022-10-02T22:41:28.623Z,100665.13
2022-10-02T22:44:01.193Z,100652.25
2022-10-02T22:46:47.677Z,100668.50
2022-10-02T22:49:25.204Z,100664.16
2022-10-02T22:52:02.184Z,100655.38
2022-10-02T22:54:41.066Z,100667.81
2022-10-02T22:57:19.379Z,100669.53
2022-10-02T22:59:56.082Z,100659.34
2022-10-02T23:02:32.547Z,100662.44
2022-10-02T23:05:06.554Z,100671.34
2022-10-02T23:07:44.609Z,100658.78
2022-10-02T23:10:25.869Z,100660.59
2022-10-02T23:13:06.358Z,100664.97
2022-10-02T23:15:48.104Z,100668.50
2022-10-02T23:18:27.738Z,100665.28
2022-10-02T23:21:04.704Z,100665.84
2022-10-02T23:23:39.289Z,100665.84
2022-10-02T23:26:13.049Z,100677.41
2022-10-02T23:28:52.046Z,100691.69
2022-10-02T23:31:30.449Z,100687.31
2022-10-02T23:34:05.433Z,100696.41
2022-10-02T23:36:38.895Z,100692.84
2022-10-02T23:39:13.549Z,100685.94
2022-10-02T23:41:50.865Z,100696.41
2022-10-02T23:44:32.123Z,100691.31
2022-10-02T23:47:27.171Z,100701.75
2022-10-02T23:49:56.678Z,100701.06
2022-10-02T23:52:52.431Z,100710.81
2022-10-02T23:55:31.654Z,100709.13
2022-10-02T23:58:18.049Z,100710.81
